sensor_id;sensor_type;location;lat;lon;timestamp;P1;durP1;ratioP1;P2;durP2;ratioP2
37845;SDS011;23686;49.828;8.702;2022-10-17T00:01:33;5.97;;;4.82;;
37845;SDS011;23686;49.828;8.702;2022-10-17T00:03:58;15.50;;;5.47;;
37845;SDS011;23686;49.828;8.702;2022-10-17T00:06:24;9.60;;;4.63;;
37845;SDS011;23686;49.828;8.702;2022-10-17T00:08:49;8.77;;;4.53;;
37845;SDS011;23686;49.828;8.702;2022-10-17T00:11:20;11.82;;;4.70;;
37845;SDS011;23686;49.828;8.702;2022-10-17T00:13:47;8.70;;;4.07;;
37845;SDS011;23686;49.828;8.702;2022-10-17T00:16:14;14.02;;;5.38;;
37845;SDS011;23686;49.828;8.702;2022-10-17T00:18:40;15.02;;;4.80;;
37845;SDS011;23686;49.828;8.702;2022-10-17T00:21:13;9.60;;;4.68;;
37845;SDS011;23686;49.828;8.702;2022-10-17T00:23:40;11.95;;;4.82;;
37845;SDS011;23686;49.828;8.702;2022-10-17T00:26:05;7.65;;;5.20;;
37845;SDS011;23686;49.828;8.702;2022-10-17T00:28:31;10.43;;;4.82;;
37845;SDS011;23686;49.828;8.702;2022-10-17T00:31:01;12.02;;;5.40;;
37845;SDS011;23686;49.828;8.702;2022-10-17T00:33:28;10.48;;;4.60;;
37845;SDS011;23686;49.828;8.702;2022-10-17T00:49:52;14.32;;;4.85;;
37845;SDS011;23686;49.828;8.702;2022-10-17T00:58:41;18.83;;;4.50;;
37845;SDS011;23686;49.828;8.702;2022-10-17T01:35:55;15.98;;;4.47;;
37845;SDS011;23686;49.828;8.702;2022-10-17T01:38:27;13.02;;;4.65;;
37845;SDS011;23686;49.828;8.702;2022-10-17T01:41:15;10.15;;;4.25;;
37845;SDS011;23686;49.828;8.702;2022-10-17T01:43:46;14.75;;;5.22;;
37845;SDS011;23686;49.828;8.702;2022-10-17T01:46:57;12.93;;;4.80;;
37845;SDS011;23686;49.828;8.702;2022-10-17T01:49:27;13.98;;;5.05;;
37845;SDS011;23686;49.828;8.702;2022-10-17T01:52:09;12.13;;;5.22;;
37845;SDS011;23686;49.828;8.702;2022-10-17T01:54:46;6.75;;;4.40;;
37845;SDS011;23686;49.828;8.702;2022-10-17T01:57:19;12.23;;;4.80;;
37845;SDS011;23686;49.828;8.702;2022-10-17T01:59:58;10.05;;;4.20;;
37845;SDS011;23686;49.828;8.702;2022-10-17T02:05:47;5.35;;;4.30;;
37845;SDS011;23686;49.828;8.702;2022-10-17T02:08:12;15.00;;;4.35;;
37845;SDS011;23686;49.828;8.702;2022-10-17T02:38:58;13.50;;;5.07;;
37845;SDS011;23686;49.828;8.702;2022-10-17T02:43:54;6.85;;;3.55;;
37845;SDS011;23686;49.828;8.702;2022-10-17T02:46:20;8.90;;;4.15;;
37845;SDS011;23686;49.828;8.702;2022-10-17T02:51:44;10.25;;;4.45;;
37845;SDS011;23686;49.828;8.702;2022-10-17T02:54:18;7.55;;;4.05;;
37845;SDS011;23686;49.828;8.702;2022-10-17T02:56:56;10.38;;;3.92;;
37845;SDS011;23686;49.828;8.702;2022-10-17T02:59:26;8.25;;;3.95;;
37845;SDS011;23686;49.828;8.702;2022-10-17T03:01:54;9.38;;;3.95;;
37845;SDS011;23686;49.828;8.702;2022-10-17T03:04:20;11.02;;;3.75;;
37845;SDS011;23686;49.828;8.702;2022-10-17T03:06:46;13.63;;;4.35;;
37845;SDS011;23686;49.828;8.702;2022-10-17T03:09:13;14.65;;;4.22;;
37845;SDS011;23686;49.828;8.702;2022-10-17T03:11:39;6.55;;;3.88;;
37845;SDS011;23686;49.828;8.702;2022-10-17T03:17:27;7.05;;;4.10;;
37845;SDS011;23686;49.828;8.702;2022-10-17T03:19:52;16.45;;;4.80;;
37845;SDS011;23686;49.828;8.702;2022-10-17T03:22:18;10.23;;;4.22;;
37845;SDS011;23686;49.828;8.702;2022-10-17T03:24:43;10.55;;;4.20;;
37845;SDS011;23686;49.828;8.702;2022-10-17T03:27:09;13.80;;;4.68;;
37845;SDS011;23686;49.828;8.702;2022-10-17T03:32:41;16.92;;;5.18;;
37845;SDS011;23686;49.828;8.702;2022-10-17T03:35:06;18.65;;;5.07;;
37845;SDS011;23686;49.828;8.702;2022-10-17T03:37:32;13.40;;;4.97;;
37845;SDS011;23686;49.828;8.702;2022-10-17T03:39:57;10.25;;;4.70;;
37845;SDS011;23686;49.828;8.702;2022-10-17T03:42:23;13.05;;;4.95;;
37845;SDS011;23686;49.828;8.702;2022-10-17T03:44:48;12.43;;;4.60;;
37845;SDS011;23686;49.828;8.702;2022-10-17T03:47:14;12.57;;;6.03;;
37845;SDS011;23686;49.828;8.702;2022-10-17T03:49:39;14.57;;;5.18;;
37845;SDS011;23686;49.828;8.702;2022-10-17T03:52:05;14.02;;;6.47;;
37845;SDS011;23686;49.828;8.702;2022-10-17T03:54:34;12.77;;;5.82;;
37845;SDS011;23686;49.828;8.702;2022-10-17T03:57:00;10.00;;;5.55;;
37845;SDS011;23686;49.828;8.702;2022-10-17T03:59:25;11.55;;;6.50;;
37845;SDS011;23686;49.828;8.702;2022-10-17T04:01:51;9.73;;;6.20;;
37845;SDS011;23686;49.828;8.702;2022-10-17T04:04:16;10.82;;;6.40;;
37845;SDS011;23686;49.828;8.702;2022-10-17T04:06:42;9.88;;;6.25;;
37845;SDS011;23686;49.828;8.702;2022-10-17T04:09:08;12.35;;;5.65;;
37845;SDS011;23686;49.828;8.702;2022-10-17T04:11:35;18.30;;;6.80;;
37845;SDS011;23686;49.828;8.702;2022-10-17T04:14:00;16.15;;;5.93;;
37845;SDS011;23686;49.828;8.702;2022-10-17T04:16:26;21.42;;;6.80;;
37845;SDS011;23686;49.828;8.702;2022-10-17T04:18:55;12.57;;;6.55;;
37845;SDS011;23686;49.828;8.702;2022-10-17T04:21:23;12.43;;;5.85;;
37845;SDS011;23686;49.828;8.702;2022-10-17T04:23:56;11.70;;;6.60;;
37845;SDS011;23686;49.828;8.702;2022-10-17T04:29:45;18.20;;;6.32;;
37845;SDS011;23686;49.828;8.702;2022-10-17T04:32:11;14.32;;;5.78;;
37845;SDS011;23686;49.828;8.702;2022-10-17T04:34:36;16.73;;;5.55;;
37845;SDS011;23686;49.828;8.702;2022-10-17T04:37:02;13.02;;;5.82;;
37845;SDS011;23686;49.828;8.702;2022-10-17T04:39:28;25.02;;;6.00;;
37845;SDS011;23686;49.828;8.702;2022-10-17T04:41:54;21.30;;;8.50;;
37845;SDS011;23686;49.828;8.702;2022-10-17T04:44:20;12.85;;;7.00;;
37845;SDS011;23686;49.828;8.702;2022-10-17T04:46:46;20.20;;;10.88;;
37845;SDS011;23686;49.828;8.702;2022-10-17T04:49:11;21.40;;;9.07;;
37845;SDS011;23686;49.828;8.702;2022-10-17T04:51:37;13.77;;;8.18;;
37845;SDS011;23686;49.828;8.702;2022-10-17T04:54:03;15.02;;;7.68;;
37845;SDS011;23686;49.828;8.702;2022-10-17T04:56:29;13.07;;;6.57;;
37845;SDS011;23686;49.828;8.702;2022-10-17T04:58:54;10.43;;;7.53;;
37845;SDS011;23686;49.828;8.702;2022-10-17T05:01:20;12.07;;;7.28;;
37845;SDS011;23686;49.828;8.702;2022-10-17T05:03:47;23.70;;;7.75;;
37845;SDS011;23686;49.828;8.702;2022-10-17T05:06:17;13.23;;;7.07;;
37845;SDS011;23686;49.828;8.702;2022-10-17T05:08:44;15.75;;;7.40;;
37845;SDS011;23686;49.828;8.702;2022-10-17T05:11:14;10.05;;;6.50;;
37845;SDS011;23686;49.828;8.702;2022-10-17T05:13:40;12.77;;;7.10;;
37845;SDS011;23686;49.828;8.702;2022-10-17T05:16:06;10.98;;;6.95;;
37845;SDS011;23686;49.828;8.702;2022-10-17T05:18:31;13.05;;;6.97;;
37845;SDS011;23686;49.828;8.702;2022-10-17T05:20:57;10.00;;;6.15;;
37845;SDS011;23686;49.828;8.702;2022-10-17T05:23:22;12.73;;;7.15;;
37845;SDS011;23686;49.828;8.702;2022-10-17T05:25:52;10.45;;;6.68;;
37845;SDS011;23686;49.828;8.702;2022-10-17T05:28:18;13.35;;;7.25;;
37845;SDS011;23686;49.828;8.702;2022-10-17T05:30:44;14.73;;;7.35;;
37845;SDS011;23686;49.828;8.702;2022-10-17T05:33:09;16.35;;;6.80;;
37845;SDS011;23686;49.828;8.702;2022-10-17T05:35:35;13.35;;;6.90;;
37845;SDS011;23686;49.828;8.702;2022-10-17T05:38:01;9.15;;;7.03;;
37845;SDS011;23686;49.828;8.702;2022-10-17T05:40:26;10.38;;;6.55;;
37845;SDS011;23686;49.828;8.702;2022-10-17T05:42:52;11.10;;;6.90;;
37845;SDS011;23686;49.828;8.702;2022-10-17T05:45:17;16.48;;;6.68;;
37845;SDS011;23686;49.828;8.702;2022-10-17T05:47:43;15.98;;;7.10;;
37845;SDS011;23686;49.828;8.702;2022-10-17T05:50:09;14.63;;;7.30;;
37845;SDS011;23686;49.828;8.702;2022-10-17T05:52:36;13.50;;;6.72;;
37845;SDS011;23686;49.828;8.702;2022-10-17T05:55:02;14.13;;;7.68;;
37845;SDS011;23686;49.828;8.702;2022-10-17T05:57:29;11.40;;;6.82;;
37845;SDS011;23686;49.828;8.702;2022-10-17T05:59:54;14.90;;;7.22;;
37845;SDS011;23686;49.828;8.702;2022-10-17T06:02:20;11.82;;;7.45;;
37845;SDS011;23686;49.828;8.702;2022-10-17T06:04:45;21.35;;;6.93;;
37845;SDS011;23686;49.828;8.702;2022-10-17T06:07:13;13.68;;;6.57;;
37845;SDS011;23686;49.828;8.702;2022-10-17T06:09:39;15.18;;;6.32;;
37845;SDS011;23686;49.828;8.702;2022-10-17T06:12:06;16.02;;;7.35;;
37845;SDS011;23686;49.828;8.702;2022-10-17T06:14:32;21.95;;;9.63;;
37845;SDS011;23686;49.828;8.702;2022-10-17T06:16:57;9.73;;;6.85;;
37845;SDS011;23686;49.828;8.702;2022-10-17T06:19:23;11.70;;;6.90;;
37845;SDS011;23686;49.828;8.702;2022-10-17T06:21:49;15.20;;;7.13;;
37845;SDS011;23686;49.828;8.702;2022-10-17T06:24:14;13.85;;;7.95;;
37845;SDS011;23686;49.828;8.702;2022-10-17T06:26:40;13.45;;;6.85;;
37845;SDS011;23686;49.828;8.702;2022-10-17T06:32:27;12.15;;;7.43;;
37845;SDS011;23686;49.828;8.702;2022-10-17T06:34:53;20.95;;;8.57;;
37845;SDS011;23686;49.828;8.702;2022-10-17T06:37:18;14.63;;;7.88;;
37845;SDS011;23686;49.828;8.702;2022-10-17T06:39:44;13.77;;;8.50;;
37845;SDS011;23686;49.828;8.702;2022-10-17T06:42:09;10.88;;;7.80;;
37845;SDS011;23686;49.828;8.702;2022-10-17T06:44:35;9.57;;;7.45;;
37845;SDS011;23686;49.828;8.702;2022-10-17T06:47:00;14.45;;;8.77;;
37845;SDS011;23686;49.828;8.702;2022-10-17T06:49:26;15.68;;;8.43;;
37845;SDS011;23686;49.828;8.702;2022-10-17T06:51:52;22.00;;;9.55;;
37845;SDS011;23686;49.828;8.702;2022-10-17T06:54:18;13.02;;;8.30;;
37845;SDS011;23686;49.828;8.702;2022-10-17T06:56:44;14.23;;;9.18;;
37845;SDS011;23686;49.828;8.702;2022-10-17T06:59:09;13.75;;;9.82;;
37845;SDS011;23686;49.828;8.702;2022-10-17T07:01:35;16.65;;;9.70;;
37845;SDS011;23686;49.828;8.702;2022-10-17T07:04:01;17.65;;;10.57;;
37845;SDS011;23686;49.828;8.702;2022-10-17T07:06:27;17.75;;;11.00;;
37845;SDS011;23686;49.828;8.702;2022-10-17T07:08:52;14.98;;;10.73;;
37845;SDS011;23686;49.828;8.702;2022-10-17T07:11:20;16.42;;;10.50;;
37845;SDS011;23686;49.828;8.702;2022-10-17T07:13:46;18.13;;;11.60;;
37845;SDS011;23686;49.828;8.702;2022-10-17T07:16:12;16.55;;;10.82;;
37845;SDS011;23686;49.828;8.702;2022-10-17T07:18:39;13.82;;;9.75;;
37845;SDS011;23686;49.828;8.702;2022-10-17T07:21:05;17.50;;;9.73;;
37845;SDS011;23686;49.828;8.702;2022-10-17T07:23:32;15.98;;;8.90;;
37845;SDS011;23686;49.828;8.702;2022-10-17T07:26:01;16.42;;;9.40;;
37845;SDS011;23686;49.828;8.702;2022-10-17T07:31:53;13.95;;;9.07;;
37845;SDS011;23686;49.828;8.702;2022-10-17T07:34:18;14.75;;;9.35;;
37845;SDS011;23686;49.828;8.702;2022-10-17T07:36:44;12.63;;;8.70;;
37845;SDS011;23686;49.828;8.702;2022-10-17T07:39:10;12.93;;;8.30;;
37845;SDS011;23686;49.828;8.702;2022-10-17T07:41:39;20.80;;;8.50;;
37845;SDS011;23686;49.828;8.702;2022-10-17T07:46:30;10.48;;;8.68;;
37845;SDS011;23686;49.828;8.702;2022-10-17T07:48:56;13.50;;;9.07;;
37845;SDS011;23686;49.828;8.702;2022-10-17T07:54:43;18.15;;;8.25;;
37845;SDS011;23686;49.828;8.702;2022-10-17T08:22:33;13.32;;;6.38;;
37845;SDS011;23686;49.828;8.702;2022-10-17T08:25:08;14.30;;;7.40;;
37845;SDS011;23686;49.828;8.702;2022-10-17T08:27:34;12.90;;;6.50;;
37845;SDS011;23686;49.828;8.702;2022-10-17T08:30:00;10.77;;;5.90;;
37845;SDS011;23686;49.828;8.702;2022-10-17T08:32:27;11.80;;;5.80;;
37845;SDS011;23686;49.828;8.702;2022-10-17T08:34:53;10.73;;;5.43;;
37845;SDS011;23686;49.828;8.702;2022-10-17T08:37:20;8.63;;;7.13;;
37845;SDS011;23686;49.828;8.702;2022-10-17T08:39:57;11.93;;;5.82;;
37845;SDS011;23686;49.828;8.702;2022-10-17T08:42:25;12.85;;;5.45;;
37845;SDS011;23686;49.828;8.702;2022-10-17T08:50:39;7.28;;;4.30;;
37845;SDS011;23686;49.828;8.702;2022-10-17T08:56:22;10.63;;;5.00;;
37845;SDS011;23686;49.828;8.702;2022-10-17T08:58:48;8.30;;;4.50;;
37845;SDS011;23686;49.828;8.702;2022-10-17T09:07:13;8.80;;;4.60;;
37845;SDS011;23686;49.828;8.702;2022-10-17T09:12:42;9.40;;;4.55;;
37845;SDS011;23686;49.828;8.702;2022-10-17T09:22:29;13.23;;;4.55;;
37845;SDS011;23686;49.828;8.702;2022-10-17T09:25:11;9.98;;;5.53;;
37845;SDS011;23686;49.828;8.702;2022-10-17T09:37:31;5.50;;;3.28;;
37845;SDS011;23686;49.828;8.702;2022-10-17T09:43:20;4.97;;;3.20;;
37845;SDS011;23686;49.828;8.702;2022-10-17T09:46:04;5.10;;;3.60;;
37845;SDS011;23686;49.828;8.702;2022-10-17T09:48:39;5.07;;;3.67;;
37845;SDS011;23686;49.828;8.702;2022-10-17T09:51:14;6.97;;;3.25;;
37845;SDS011;23686;49.828;8.702;2022-10-17T09:53:44;6.22;;;4.32;;
37845;SDS011;23686;49.828;8.702;2022-10-17T09:56:15;11.07;;;3.97;;
37845;SDS011;23686;49.828;8.702;2022-10-17T09:58:48;6.90;;;3.10;;
37845;SDS011;23686;49.828;8.702;2022-10-17T10:01:20;5.55;;;3.72;;
37845;SDS011;23686;49.828;8.702;2022-10-17T10:06:35;5.50;;;3.38;;
37845;SDS011;23686;49.828;8.702;2022-10-17T10:09:01;6.25;;;3.38;;
37845;SDS011;23686;49.828;8.702;2022-10-17T10:16:59;5.88;;;2.70;;
37845;SDS011;23686;49.828;8.702;2022-10-17T10:19:33;6.15;;;3.40;;
37845;SDS011;23686;49.828;8.702;2022-10-17T10:22:04;5.43;;;3.30;;
37845;SDS011;23686;49.828;8.702;2022-10-17T10:24:38;6.57;;;2.70;;
37845;SDS011;23686;49.828;8.702;2022-10-17T10:27:04;4.45;;;2.70;;
37845;SDS011;23686;49.828;8.702;2022-10-17T10:29:31;4.43;;;2.42;;
37845;SDS011;23686;49.828;8.702;2022-10-17T10:32:09;4.15;;;2.72;;
37845;SDS011;23686;49.828;8.702;2022-10-17T10:37:47;5.13;;;2.67;;
37845;SDS011;23686;49.828;8.702;2022-10-17T10:40:26;10.50;;;2.88;;
37845;SDS011;23686;49.828;8.702;2022-10-17T10:43:02;3.60;;;2.25;;
37845;SDS011;23686;49.828;8.702;2022-10-17T10:48:01;3.08;;;2.28;;
37845;SDS011;23686;49.828;8.702;2022-10-17T10:50:56;5.35;;;2.90;;
37845;SDS011;23686;49.828;8.702;2022-10-17T10:53:35;3.85;;;2.47;;
37845;SDS011;23686;49.828;8.702;2022-10-17T11:07:31;10.90;;;2.75;;
37845;SDS011;23686;49.828;8.702;2022-10-17T11:12:34;3.45;;;2.15;;
37845;SDS011;23686;49.828;8.702;2022-10-17T11:15:08;6.10;;;3.05;;
37845;SDS011;23686;49.828;8.702;2022-10-17T11:17:44;3.83;;;2.80;;
37845;SDS011;23686;49.828;8.702;2022-10-17T11:20:19;4.10;;;2.58;;
37845;SDS011;23686;49.828;8.702;2022-10-17T11:26:17;5.30;;;2.90;;
37845;SDS011;23686;49.828;8.702;2022-10-17T11:28:51;5.05;;;2.85;;
37845;SDS011;23686;49.828;8.702;2022-10-17T11:31:18;4.37;;;2.53;;
37845;SDS011;23686;49.828;8.702;2022-10-17T11:36:36;9.20;;;2.85;;
37845;SDS011;23686;49.828;8.702;2022-10-17T11:39:06;4.10;;;3.05;;
37845;SDS011;23686;49.828;8.702;2022-10-17T11:41:40;8.52;;;2.95;;
37845;SDS011;23686;49.828;8.702;2022-10-17T11:44:21;6.55;;;3.10;;
37845;SDS011;23686;49.828;8.702;2022-10-17T11:46:49;6.88;;;2.83;;
37845;SDS011;23686;49.828;8.702;2022-10-17T11:55:04;5.30;;;3.05;;
37845;SDS011;23686;49.828;8.702;2022-10-17T12:03:24;14.20;;;2.80;;
37845;SDS011;23686;49.828;8.702;2022-10-17T12:06:03;7.30;;;2.67;;
37845;SDS011;23686;49.828;8.702;2022-10-17T12:14:36;5.00;;;3.15;;
37845;SDS011;23686;49.828;8.702;2022-10-17T12:17:03;3.80;;;3.05;;
37845;SDS011;23686;49.828;8.702;2022-10-17T12:25:33;11.30;;;3.40;;
37845;SDS011;23686;49.828;8.702;2022-10-17T12:28:13;5.90;;;3.28;;
37845;SDS011;23686;49.828;8.702;2022-10-17T12:30:49;5.85;;;3.38;;
37845;SDS011;23686;49.828;8.702;2022-10-17T12:33:19;4.30;;;3.10;;
37845;SDS011;23686;49.828;8.702;2022-10-17T12:35:51;6.20;;;2.75;;
37845;SDS011;23686;49.828;8.702;2022-10-17T12:49:35;5.45;;;3.40;;
37845;SDS011;23686;49.828;8.702;2022-10-17T12:52:20;8.48;;;3.15;;
37845;SDS011;23686;49.828;8.702;2022-10-17T12:54:51;7.88;;;3.55;;
37845;SDS011;23686;49.828;8.702;2022-10-17T13:00:36;4.47;;;3.33;;
37845;SDS011;23686;49.828;8.702;2022-10-17T13:19:47;7.40;;;3.17;;
37845;SDS011;23686;49.828;8.702;2022-10-17T13:24:46;5.47;;;2.97;;
37845;SDS011;23686;49.828;8.702;2022-10-17T13:27:23;5.85;;;3.80;;
37845;SDS011;23686;49.828;8.702;2022-10-17T13:29:58;9.65;;;3.08;;
37845;SDS011;23686;49.828;8.702;2022-10-17T13:32:25;6.97;;;3.30;;
37845;SDS011;23686;49.828;8.702;2022-10-17T13:35:05;5.30;;;3.45;;
37845;SDS011;23686;49.828;8.702;2022-10-17T13:37:31;5.82;;;3.22;;
37845;SDS011;23686;49.828;8.702;2022-10-17T13:39:58;8.77;;;3.78;;
37845;SDS011;23686;49.828;8.702;2022-10-17T13:42:35;6.38;;;3.65;;
37845;SDS011;23686;49.828;8.702;2022-10-17T13:45:03;3.83;;;3.40;;
37845;SDS011;23686;49.828;8.702;2022-10-17T13:47:35;8.20;;;3.60;;
37845;SDS011;23686;49.828;8.702;2022-10-17T13:50:03;7.80;;;3.70;;
37845;SDS011;23686;49.828;8.702;2022-10-17T13:52:29;4.88;;;3.95;;
37845;SDS011;23686;49.828;8.702;2022-10-17T13:55:04;7.75;;;3.40;;
37845;SDS011;23686;49.828;8.702;2022-10-17T13:57:39;5.28;;;3.33;;
37845;SDS011;23686;49.828;8.702;2022-10-17T14:00:06;6.97;;;3.65;;
37845;SDS011;23686;49.828;8.702;2022-10-17T14:02:40;9.30;;;3.80;;
37845;SDS011;23686;49.828;8.702;2022-10-17T14:10:24;6.75;;;3.70;;
37845;SDS011;23686;49.828;8.702;2022-10-17T14:13:02;6.60;;;3.40;;
37845;SDS011;23686;49.828;8.702;2022-10-17T14:15:31;6.30;;;3.40;;
37845;SDS011;23686;49.828;8.702;2022-10-17T14:18:05;7.65;;;4.20;;
37845;SDS011;23686;49.828;8.702;2022-10-17T14:20:35;8.98;;;3.42;;
37845;SDS011;23686;49.828;8.702;2022-10-17T14:23:01;6.68;;;3.97;;
37845;SDS011;23686;49.828;8.702;2022-10-17T14:25:34;7.63;;;3.58;;
37845;SDS011;23686;49.828;8.702;2022-10-17T14:30:39;7.13;;;3.72;;
37845;SDS011;23686;49.828;8.702;2022-10-17T14:33:17;8.48;;;3.55;;
37845;SDS011;23686;49.828;8.702;2022-10-17T14:35:54;6.47;;;3.60;;
37845;SDS011;23686;49.828;8.702;2022-10-17T14:38:21;4.28;;;3.30;;
37845;SDS011;23686;49.828;8.702;2022-10-17T14:40:52;6.82;;;3.55;;
37845;SDS011;23686;49.828;8.702;2022-10-17T14:43:27;5.50;;;3.78;;
37845;SDS011;23686;49.828;8.702;2022-10-17T14:45:57;5.25;;;3.85;;
37845;SDS011;23686;49.828;8.702;2022-10-17T14:48:24;6.38;;;3.58;;
37845;SDS011;23686;49.828;8.702;2022-10-17T14:53:35;4.55;;;3.47;;
37845;SDS011;23686;49.828;8.702;2022-10-17T14:56:19;5.55;;;3.80;;
37845;SDS011;23686;49.828;8.702;2022-10-17T14:58:50;4.60;;;3.42;;
37845;SDS011;23686;49.828;8.702;2022-10-17T15:01:24;5.53;;;4.13;;
37845;SDS011;23686;49.828;8.702;2022-10-17T15:03:50;5.68;;;3.90;;
37845;SDS011;23686;49.828;8.702;2022-10-17T15:06:20;7.68;;;4.55;;
37845;SDS011;23686;49.828;8.702;2022-10-17T15:08:55;6.13;;;4.20;;
37845;SDS011;23686;49.828;8.702;2022-10-17T15:11:26;4.40;;;3.55;;
37845;SDS011;23686;49.828;8.702;2022-10-17T15:13:52;6.85;;;4.07;;
37845;SDS011;23686;49.828;8.702;2022-10-17T15:16:29;8.18;;;4.75;;
37845;SDS011;23686;49.828;8.702;2022-10-17T15:21:22;16.67;;;9.18;;
37845;SDS011;23686;49.828;8.702;2022-10-17T15:23:48;54.53;;;22.73;;
37845;SDS011;23686;49.828;8.702;2022-10-17T15:26:15;87.35;;;38.13;;
37845;SDS011;23686;49.828;8.702;2022-10-17T15:28:44;37.10;;;18.27;;
37845;SDS011;23686;49.828;8.702;2022-10-17T15:31:11;8.60;;;5.18;;
37845;SDS011;23686;49.828;8.702;2022-10-17T15:33:38;23.20;;;11.00;;
37845;SDS011;23686;49.828;8.702;2022-10-17T15:36:04;19.88;;;9.20;;
37845;SDS011;23686;49.828;8.702;2022-10-17T15:38:40;12.85;;;7.72;;
37845;SDS011;23686;49.828;8.702;2022-10-17T15:41:07;18.13;;;7.95;;
37845;SDS011;23686;49.828;8.702;2022-10-17T15:43:34;13.63;;;7.53;;
37845;SDS011;23686;49.828;8.702;2022-10-17T15:46:00;9.75;;;6.72;;
37845;SDS011;23686;49.828;8.702;2022-10-17T15:48:27;6.38;;;4.38;;
37845;SDS011;23686;49.828;8.702;2022-10-17T15:50:54;6.25;;;4.60;;
37845;SDS011;23686;49.828;8.702;2022-10-17T15:53:20;6.93;;;5.07;;
37845;SDS011;23686;49.828;8.702;2022-10-17T15:55:46;13.27;;;6.97;;
37845;SDS011;23686;49.828;8.702;2022-10-17T16:00:41;9.27;;;6.30;;
37845;SDS011;23686;49.828;8.702;2022-10-17T16:03:07;10.85;;;5.68;;
37845;SDS011;23686;49.828;8.702;2022-10-17T16:05:39;7.32;;;5.07;;
37845;SDS011;23686;49.828;8.702;2022-10-17T16:08:05;8.32;;;4.93;;
37845;SDS011;23686;49.828;8.702;2022-10-17T16:10:38;9.07;;;4.70;;
37845;SDS011;23686;49.828;8.702;2022-10-17T16:16:26;11.57;;;4.65;;
37845;SDS011;23686;49.828;8.702;2022-10-17T16:18:52;9.30;;;5.35;;
37845;SDS011;23686;49.828;8.702;2022-10-17T16:21:18;16.20;;;4.97;;
37845;SDS011;23686;49.828;8.702;2022-10-17T16:23:46;21.02;;;5.13;;
37845;SDS011;23686;49.828;8.702;2022-10-17T16:26:12;18.42;;;5.35;;
37845;SDS011;23686;49.828;8.702;2022-10-17T16:28:39;13.32;;;7.03;;
37845;SDS011;23686;49.828;8.702;2022-10-17T16:31:12;13.45;;;5.50;;
37845;SDS011;23686;49.828;8.702;2022-10-17T16:33:50;18.38;;;6.20;;
37845;SDS011;23686;49.828;8.702;2022-10-17T16:36:18;8.63;;;6.15;;
37845;SDS011;23686;49.828;8.702;2022-10-17T16:38:44;20.55;;;5.85;;
37845;SDS011;23686;49.828;8.702;2022-10-17T16:41:16;12.82;;;5.68;;
37845;SDS011;23686;49.828;8.702;2022-10-17T16:43:54;20.27;;;6.45;;
37845;SDS011;23686;49.828;8.702;2022-10-17T16:49:28;15.15;;;6.13;;
37845;SDS011;23686;49.828;8.702;2022-10-17T16:52:01;12.95;;;5.88;;
37845;SDS011;23686;49.828;8.702;2022-10-17T16:54:27;16.23;;;6.30;;
37845;SDS011;23686;49.828;8.702;2022-10-17T16:56:53;12.77;;;5.82;;
37845;SDS011;23686;49.828;8.702;2022-10-17T16:59:21;16.23;;;6.20;;
37845;SDS011;23686;49.828;8.702;2022-10-17T17:01:48;15.27;;;7.45;;
37845;SDS011;23686;49.828;8.702;2022-10-17T17:04:22;21.70;;;6.35;;
37845;SDS011;23686;49.828;8.702;2022-10-17T17:06:51;8.98;;;5.57;;
37845;SDS011;23686;49.828;8.702;2022-10-17T17:09:17;15.07;;;7.68;;
37845;SDS011;23686;49.828;8.702;2022-10-17T17:11:42;11.10;;;7.90;;
37845;SDS011;23686;49.828;8.702;2022-10-17T17:14:09;25.42;;;17.98;;
37845;SDS011;23686;49.828;8.702;2022-10-17T17:16:35;30.38;;;20.00;;
37845;SDS011;23686;49.828;8.702;2022-10-17T17:19:05;14.82;;;9.38;;
37845;SDS011;23686;49.828;8.702;2022-10-17T17:21:32;18.38;;;7.93;;
37845;SDS011;23686;49.828;8.702;2022-10-17T17:23:59;15.60;;;7.20;;
37845;SDS011;23686;49.828;8.702;2022-10-17T17:26:26;14.25;;;6.93;;
37845;SDS011;23686;49.828;8.702;2022-10-17T17:28:55;19.23;;;7.72;;
37845;SDS011;23686;49.828;8.702;2022-10-17T17:33:49;16.42;;;6.68;;
37845;SDS011;23686;49.828;8.702;2022-10-17T17:36:16;14.93;;;6.38;;
37845;SDS011;23686;49.828;8.702;2022-10-17T17:38:44;15.15;;;7.80;;
37845;SDS011;23686;49.828;8.702;2022-10-17T17:41:11;15.55;;;6.93;;
37845;SDS011;23686;49.828;8.702;2022-10-17T17:43:38;7.77;;;6.37;;
37845;SDS011;23686;49.828;8.702;2022-10-17T17:46:04;15.35;;;6.40;;
37845;SDS011;23686;49.828;8.702;2022-10-17T17:48:29;14.13;;;6.15;;
37845;SDS011;23686;49.828;8.702;2022-10-17T17:50:55;14.48;;;6.65;;
37845;SDS011;23686;49.828;8.702;2022-10-17T17:53:20;18.15;;;5.97;;
37845;SDS011;23686;49.828;8.702;2022-10-17T17:55:46;11.60;;;6.10;;
37845;SDS011;23686;49.828;8.702;2022-10-17T17:58:12;15.05;;;6.70;;
37845;SDS011;23686;49.828;8.702;2022-10-17T18:00:38;14.57;;;5.82;;
37845;SDS011;23686;49.828;8.702;2022-10-17T18:03:04;22.08;;;7.95;;
37845;SDS011;23686;49.828;8.702;2022-10-17T18:05:30;13.85;;;7.00;;
37845;SDS011;23686;49.828;8.702;2022-10-17T18:07:56;13.18;;;6.60;;
37845;SDS011;23686;49.828;8.702;2022-10-17T18:10:22;17.67;;;6.43;;
37845;SDS011;23686;49.828;8.702;2022-10-17T18:12:47;17.25;;;7.20;;
37845;SDS011;23686;49.828;8.702;2022-10-17T18:15:13;29.42;;;7.32;;
37845;SDS011;23686;49.828;8.702;2022-10-17T18:17:39;17.13;;;6.50;;
37845;SDS011;23686;49.828;8.702;2022-10-17T18:20:05;16.45;;;6.15;;
37845;SDS011;23686;49.828;8.702;2022-10-17T18:22:32;14.38;;;6.85;;
37845;SDS011;23686;49.828;8.702;2022-10-17T18:24:57;12.98;;;6.90;;
37845;SDS011;23686;49.828;8.702;2022-10-17T18:27:23;20.88;;;7.82;;
37845;SDS011;23686;49.828;8.702;2022-10-17T18:29:48;15.85;;;6.68;;
37845;SDS011;23686;49.828;8.702;2022-10-17T18:32:15;15.48;;;7.03;;
37845;SDS011;23686;49.828;8.702;2022-10-17T18:34:40;10.15;;;7.10;;
37845;SDS011;23686;49.828;8.702;2022-10-17T18:37:06;16.98;;;6.90;;
37845;SDS011;23686;49.828;8.702;2022-10-17T18:39:33;17.38;;;7.47;;
37845;SDS011;23686;49.828;8.702;2022-10-17T18:41:59;20.80;;;7.50;;
37845;SDS011;23686;49.828;8.702;2022-10-17T18:47:46;23.70;;;7.22;;
37845;SDS011;23686;49.828;8.702;2022-10-17T18:53:37;20.15;;;7.30;;
37845;SDS011;23686;49.828;8.702;2022-10-17T18:59:40;18.63;;;7.65;;
37845;SDS011;23686;49.828;8.702;2022-10-17T19:02:09;15.88;;;7.60;;
37845;SDS011;23686;49.828;8.702;2022-10-17T19:04:37;15.88;;;7.72;;
37845;SDS011;23686;49.828;8.702;2022-10-17T19:07:02;18.92;;;8.65;;
37845;SDS011;23686;49.828;8.702;2022-10-17T19:09:30;20.50;;;8.48;;
37845;SDS011;23686;49.828;8.702;2022-10-17T19:11:56;15.75;;;8.40;;
37845;SDS011;23686;49.828;8.702;2022-10-17T19:14:21;25.48;;;7.95;;
37845;SDS011;23686;49.828;8.702;2022-10-17T19:16:48;30.88;;;8.15;;
37845;SDS011;23686;49.828;8.702;2022-10-17T19:19:16;15.50;;;7.82;;
37845;SDS011;23686;49.828;8.702;2022-10-17T19:21:46;13.98;;;8.43;;
37845;SDS011;23686;49.828;8.702;2022-10-17T19:27:33;16.10;;;7.82;;
37845;SDS011;23686;49.828;8.702;2022-10-17T19:29:59;24.23;;;8.10;;
37845;SDS011;23686;49.828;8.702;2022-10-17T19:32:24;16.70;;;8.30;;
37845;SDS011;23686;49.828;8.702;2022-10-17T19:34:50;23.45;;;8.25;;
37845;SDS011;23686;49.828;8.702;2022-10-17T19:37:15;23.50;;;8.20;;
37845;SDS011;23686;49.828;8.702;2022-10-17T19:39:41;19.55;;;8.00;;
37845;SDS011;23686;49.828;8.702;2022-10-17T19:42:06;18.27;;;8.63;;
37845;SDS011;23686;49.828;8.702;2022-10-17T19:44:32;18.40;;;8.48;;
37845;SDS011;23686;49.828;8.702;2022-10-17T19:46:58;22.08;;;8.57;;
37845;SDS011;23686;49.828;8.702;2022-10-17T19:49:23;16.35;;;8.13;;
37845;SDS011;23686;49.828;8.702;2022-10-17T19:51:49;19.00;;;9.13;;
37845;SDS011;23686;49.828;8.702;2022-10-17T19:54:14;21.23;;;9.52;;